ハバロフスク の空港の天気 - METARとTAF

ハバロフスク空港 ( UHHH / KHV ) - ロシア ハバロフスク
飛行場実況気象(Metar)
観測時間02/28 06:30 +10 (02/27 20:30 UTC)
風向・風速不定 1m/s
視程10km以上
天気現象
なし
気温-15℃
湿度78%
気圧1017hPa
METARUHHH 272030Z VRB01MPS CAVOK M15/M18 Q1017 R23L/090060 NOSIG RMK QFE756/1008
過去の天気等 Google飛行場航空写真 Wunderground天気予報

過去48時間のMETAR

飛行場予報(TAF)
発表時間: 2/28 05:52 +10 (2/27 19:52 UTC)
予報対象時間: 28日7時 +10 ~ 1日13時 +10
風向・風速南南西 3m/s
視程10km以上
全天の4割程度の積乱雲 雲底高度 910m
28日9時 +10 ~ 28日11時 +10 に徐々に
視程3,000m
天気現象弱いしゅう雪
28日11時 +10 ~ 1日1時 +10 に一時的に
風向・風速不定 1m/s
視程1,500m
天気現象しゅう雪
全天の4割程度の雲 雲底高度 180m
全天の8割程度の積乱雲 雲底高度 460m
TAF UHHH 271952Z 2721/0103 21003MPS 9999 SCT030CB
BECMG 2723/2801 3000 -SHSN
TEMPO 2801/2815 VRB01MPS 1500 SHSN SCT006 BKN015CB